ADDS METAR Data INFO
IDs: Format: Raw Decoded Include TAF

Data at: 0156 UTC 17 Oct 2017

KMKG 170055Z 15007KT 10SM SCT220 09/06 A3020 RMK AO2 SLP230 T00890056
KMKG 162355Z 00000KT 10SM SCT200 09/05 A3021 RMK AO2 SLP235 T00890050 10150 20089 56008
KMKG 162255Z 19005KT 10SM SCT200 11/04 A3022 RMK AO2 SLP236 T01110039
KMKG 162155Z 23007KT 10SM SCT200 13/04 A3023 RMK AO2 SLP239 T01330039
KMKG 162055Z 22009KT 10SM SCT040 14/03 A3024 RMK AO2 SLP241 T01390028 56012
KMKG 161955Z 24011KT 10SM SCT040 BKN047 14/03 A3024 RMK AO2 SLP243 T01440033
KMKG 161855Z 28010KT 10SM SCT037 BKN060 15/04 A3025 RMK AO2 SLP246 T01500044
KMKG 161755Z 26010KT 10SM SCT037 BKN060 15/05 A3027 RMK AO2 SLP253 T01500050 10150 20072 58005
KMKG 161655Z 27010KT 10SM FEW024 BKN048 OVC060 14/06 A3028 RMK AO2 SLP257 T01390056
KMKG 161555Z 18005KT 10SM BKN060 12/07 A3029 RMK AO2 SLP259 T01170072
KMKG 161455Z 15006KT 10SM BKN080 09/07 A3029 RMK AO2 SLP259 T00940072 50006
KMKG 161355Z 10005KT 10SM OVC065 08/06 A3029 RMK AO2 SLP259 T00780061
KMKG 161255Z 12006KT 10SM OVC060 07/05 A3027 RMK AO2 SLP256 T00720050
KMKG 161155Z 11005KT 10SM BKN070 OVC090 07/06 A3027 RMK AO2 SLP252 60001 70033 T00720056 10083 20072 51012
KMKG 161055Z 11004KT 10SM SCT043 OVC095 07/06 A3026 RMK AO2 SLP250 T00720061
KMKG 160955Z 11003KT 10SM BKN031 OVC080 07/07 A3024 RMK AO2 SLP244 T00720067
KMKG 160855Z AUTO 04003KT 10SM SCT030 BKN036 BKN047 08/06 A3023 RMK AO2 RAB0757E16 SLP241 P0000 60001 T00780061 53009
KMKG 160812Z AUTO 00000KT 10SM -RA BKN030 OVC085 08/06 A3022 RMK AO2 RAB0757 P0000 T00780061
KMKG 160755Z AUTO 09005KT 10SM BKN029 BKN045 OVC050 08/06 A3022 RMK AO2 RAE00 SLP237 P0000 T00780056
KMKG 160718Z AUTO 21005KT 10SM BKN029 OVC036 08/07 A3023 RMK AO2 RAE00 P0000 T00780067
KMKG 160655Z AUTO 00000KT 10SM -RA BKN030 BKN038 OVC065 08/06 A3021 RMK AO2 RAB11E25B33 SLP235 P0001 T00780061
KMKG 160628Z AUTO 17005KT 10SM VCTS BKN030 BKN037 OVC045 08/07 A3021 RMK AO2 RAB11E25 P0000 T00830067
KMKG 160616Z AUTO 14004KT 9SM -RA BKN029 OVC043 08/07 A3021 RMK AO2 RAB11 P0000 T00830072
KMKG 160555Z AUTO 12004KT 10SM OVC030 08/07 A3021 RMK AO2 RAE43 SLP232 P0004 60028 T00830067 10100 20083 53004
KMKG 160455Z AUTO 07003KT 6SM -RA BR FEW034 OVC045 08/07 A3021 RMK AO2 SLP232 P0012 T00830072 401940083
KMKG 160437Z AUTO 04003KT 4SM RA BR SCT031 OVC044 08/07 A3020 RMK AO2 VIS 2 RWY 14 CIG 032 RWY 14 P0008 T00830067
KMKG 160355Z AUTO 12004KT 7SM -RA BKN029 OVC038 08/07 A3019 RMK AO2 SLP224 P0009 T00830072
KMKG 160255Z 35006KT 6SM RA BR SCT024 BKN031 OVC048 09/07 A3019 RMK AO2 RAB0159 SLP226 LAST P0003 60003 T00890072 53019
KMKG 160155Z 00000KT 10SM FEW038 SCT050 OVC075 09/08 A3016 RMK AO2 SLP215 T00940078
KMKG 160055Z 01004KT 10SM FEW044 OVC065 09/07 A3015 RMK AO2 RAE09B28E52 SLP212 P0000 T00940072
KMKG 152355Z 01006KT 9SM -RA SCT037 BKN055 OVC065 10/07 A3013 RMK AO2 RAE11B31 SLP205 P0001 60002 T01000072 10122 20094 51033
KMKG 152255Z 34011G17KT 10SM -RA SCT037 BKN042 BKN050 10/07 A3012 RMK AO2 SLP199 P0000 T01000072
KMKG 152155Z 35009KT 10SM -RA FEW020 SCT032 BKN044 10/07 A3007 RMK AO2 RAB04 SLP185 P0001 T01000072
KMKG 152055Z 35011G20KT 10SM OVC050 11/07 A3004 RMK AO2 PK WND 32026/2001 RAE55 SLP171 P0000 60000 T01110072 51030
KMKG 152005Z 33013G26KT 10SM -RA FEW022 BKN046 OVC055 12/08 A3001 RMK AO2 PK WND 32026/2001 P0000 T01170078
KMKG 151955Z 33015G22KT 9SM -RA FEW022 BKN027 OVC048 11/08 A2999 RMK AO2 PK WND 33026/1929 RAB13 SLP157 P0000 T01110078
KMKG 151951Z 34016G22KT 9SM -RA BKN024 BKN029 OVC035 11/07 A3000 RMK AO2 PK WND 33026/1929 RAB13 P0000
KMKG 151943Z 35017G22KT 10SM -RA SCT023 OVC034 11/07 A2999 RMK AO2 PK WND 33026/1929 RAB13 PRESRR P0000 T01110072
KMKG 151855Z 32018G25KT 10SM OVC024 12/07 A2995 RMK AO2 PK WND 35026/1804 RAB25E51 SLP140 P0000 T01170072
KMKG 151835Z 33018G23KT 10SM -RA BKN023 BKN034 OVC045 12/08 A2993 RMK AO2 PK WND 35026/1804 RAB25 P0000 T01220078
KMKG 151816Z 34020G25KT 10SM FEW020 BKN037 OVC045 12/08 A2993 RMK AO2 PK WND 35026/1804 T01220078
KMKG 151755Z 34018G28KT 10SM BKN019 OVC028 12/08 A2992 RMK AO2 PK WND 32030/1703 RAE05 PRESRR SLP131 P0000 60002 T01170083 10189 20117 53056
KMKG 151725Z 33016G25KT 10SM SCT015 BKN020 OVC039 12/09 A2988 RMK AO2 PK WND 32030/1703 RAE05 P0000 T01220094
KMKG 151713Z 33015G29KT 10SM SCT014 SCT023 OVC037 12/09 A2987 RMK AO2 PK WND 32030/1703 RAE05 CIG 016 RWY 14 P0000 T01220094
KMKG 151655Z 32022G30KT 6SM -RA BR BKN013 BKN022 OVC027 12/10 A2985 RMK AO2 PK WND 32030/1654 RAB1556 SLP107 P0001 T01170100
KMKG 151647Z 32019G29KT 5SM -RA BR BKN013 BKN018 OVC024 12/11 A2984 RMK AO2 PK WND 32029/1640 RAB1556 PRESRR P0001 T01220106
KMKG 151555Z 29015G26KT 9SM BKN016 OVC024 13/11 A2979 RMK AO2 PK WND 30028/1500 SLP087 T01330106
KMKG 151538Z 30013G25KT 10SM BKN017 BKN023 OVC048 13/10 A2978 RMK AO2 PK WND 30028/1500 T01330100
KMKG 151523Z 29016G28KT 10SM FEW016 BKN040 OVC047 13/10 A2977 RMK AO2 PK WND 30028/1500 T01330100 $
KMKG 151455Z 29014G25KT 10SM OVC016 13/10 A2975 RMK AO2 PK WND 31029/1430 RAB31E45 SLP073 P0000 60001 T01330100 51046 $
KMKG 151432Z 31015G29KT 7SM -RA OVC015 13/11 A2973 RMK AO2 PK WND 31029/1430 RAB31 P0000 T01330106 $